This is the latest recevied weather packets stored in our database for station/object DOUGLAS. If no packets are shown the sender has not sent any weather packets the latest 1 day(s).
| Time | Temp. | Humidity | Pressure | Rain* | Wind** | Luminosity | Snow |
|---|---|---|---|---|---|---|---|
| 1778040004 | 10° C | - | - | - | 1.34 m/s, 256° | - | - |
| 1778039403 | 10.56° C | - | - | - | 1.34 m/s, 253° | - | - |
| 1778038803 | 10.56° C | - | - | - | 1.34 m/s, 260° | - | - |
| 1778038203 | 10.56° C | - | - | - | 1.79 m/s, 262° | - | - |
| 1778037603 | 10.56° C | - | - | - | 1.34 m/s, 260° | - | - |
| 1778037003 | 10.56° C | - | - | - | 0.45 m/s, 276° | - | - |
| 1778036403 | 10.56° C | - | - | - | 1.79 m/s, 259° | - | - |
| 1778035803 | 10.56° C | - | - | - | 1.34 m/s, 255° | - | - |
| 1778035203 | 11.11° C | - | - | - | 0.89 m/s, 261° | - | - |
| 1778034604 | 11.11° C | - | - | - | 0.89 m/s, 267° | - | - |
| 1778034002 | 11.11° C | - | - | - | 1.34 m/s, 256° | - | - |
| 1778033402 | 11.11° C | 99% | 0 hPa | - | 1.34 m/s, 269° | - | - |
| 1778032803 | 11.67° C | 98% | 0 hPa | - | 0.89 m/s, 269° | - | - |
| 1778032203 | 11.67° C | 97% | 0 hPa | - | 0.45 m/s, 287° | - | - |
| 1778031603 | 11.67° C | 95% | 0 hPa | - | 1.79 m/s, 259° | - | - |
| 1778031004 | 12.22° C | 92% | 0 hPa | - | 1.79 m/s, 262° | - | - |
| 1778030402 | 12.78° C | 91% | 0 hPa | - | 1.34 m/s, 259° | - | - |
| 1778029802 | 12.78° C | 90% | 0 hPa | - | 0.45 m/s, 270° | - | - |
| 1778029203 | 13.33° C | 89% | 0 hPa | - | 0.89 m/s, 277° | - | - |
| 1778028603 | 13.33° C | 88% | 0 hPa | - | 1.79 m/s, 262° | - | - |
| 1778028003 | 13.89° C | 85% | 0 hPa | - | 1.34 m/s, 265° | - | - |
| 1778027404 | 13.89° C | 86% | 0 hPa | - | 1.79 m/s, 265° | - | - |
| 1778026803 | 13.89° C | 87% | 0 hPa | - | 1.79 m/s, 252° | - | - |
| 1778026203 | 13.33° C | 87% | 0 hPa | - | 2.24 m/s, 263° | - | - |
| 1778025603 | 13.89° C | 85% | 0 hPa | - | 1.34 m/s, 262° | - | - |
* Rain since midnight (hover to see other rain measurements)
** Current wind speed in m/s (hover to see current wind gust speed)